sensor_id;sensor_type;location;lat;lon;timestamp;P1;durP1;ratioP1;P2;durP2;ratioP2
58581;SDS011;44361;51.476;5.700;2022-10-16T00:01:45;6.50;;;2.72;;
58581;SDS011;44361;51.476;5.700;2022-10-16T00:04:11;6.35;;;2.80;;
58581;SDS011;44361;51.476;5.700;2022-10-16T00:06:37;8.82;;;3.60;;
58581;SDS011;44361;51.476;5.700;2022-10-16T00:09:03;7.70;;;2.67;;
58581;SDS011;44361;51.476;5.700;2022-10-16T00:11:33;11.23;;;3.15;;
58581;SDS011;44361;51.476;5.700;2022-10-16T00:14:02;6.50;;;3.03;;
58581;SDS011;44361;51.476;5.700;2022-10-16T00:16:30;9.57;;;3.10;;
58581;SDS011;44361;51.476;5.700;2022-10-16T00:18:57;5.40;;;3.20;;
58581;SDS011;44361;51.476;5.700;2022-10-16T00:21:24;7.07;;;2.92;;
58581;SDS011;44361;51.476;5.700;2022-10-16T00:23:55;4.90;;;2.65;;
58581;SDS011;44361;51.476;5.700;2022-10-16T00:26:24;9.45;;;2.95;;
58581;SDS011;44361;51.476;5.700;2022-10-16T00:28:50;6.15;;;2.80;;
58581;SDS011;44361;51.476;5.700;2022-10-16T00:31:17;8.00;;;2.72;;
58581;SDS011;44361;51.476;5.700;2022-10-16T00:33:44;7.43;;;2.55;;
58581;SDS011;44361;51.476;5.700;2022-10-16T00:36:11;8.43;;;3.20;;
58581;SDS011;44361;51.476;5.700;2022-10-16T00:38:39;11.70;;;2.60;;
58581;SDS011;44361;51.476;5.700;2022-10-16T00:41:05;5.20;;;2.85;;
58581;SDS011;44361;51.476;5.700;2022-10-16T00:46:20;7.53;;;3.10;;
58581;SDS011;44361;51.476;5.700;2022-10-16T00:48:52;5.90;;;2.80;;
58581;SDS011;44361;51.476;5.700;2022-10-16T00:51:34;5.18;;;2.47;;
58581;SDS011;44361;51.476;5.700;2022-10-16T00:54:03;4.38;;;2.63;;
58581;SDS011;44361;51.476;5.700;2022-10-16T00:56:33;5.13;;;2.50;;
58581;SDS011;44361;51.476;5.700;2022-10-16T00:58:58;5.05;;;2.88;;
58581;SDS011;44361;51.476;5.700;2022-10-16T01:01:26;8.80;;;2.35;;
58581;SDS011;44361;51.476;5.700;2022-10-16T01:03:52;5.25;;;3.15;;
58581;SDS011;44361;51.476;5.700;2022-10-16T01:06:31;5.43;;;2.97;;
58581;SDS011;44361;51.476;5.700;2022-10-16T01:09:13;4.72;;;2.33;;
58581;SDS011;44361;51.476;5.700;2022-10-16T01:14:24;4.20;;;2.97;;
58581;SDS011;44361;51.476;5.700;2022-10-16T01:17:16;7.30;;;2.90;;
58581;SDS011;44361;51.476;5.700;2022-10-16T01:22:47;6.05;;;2.65;;
58581;SDS011;44361;51.476;5.700;2022-10-16T01:25:31;5.07;;;2.70;;
58581;SDS011;44361;51.476;5.700;2022-10-16T01:28:14;5.05;;;2.67;;
58581;SDS011;44361;51.476;5.700;2022-10-16T01:30:41;6.72;;;3.08;;
58581;SDS011;44361;51.476;5.700;2022-10-16T01:33:10;7.32;;;3.13;;
58581;SDS011;44361;51.476;5.700;2022-10-16T01:35:53;7.78;;;2.78;;
58581;SDS011;44361;51.476;5.700;2022-10-16T01:38:30;3.35;;;2.45;;
58581;SDS011;44361;51.476;5.700;2022-10-16T01:41:03;4.55;;;2.80;;
58581;SDS011;44361;51.476;5.700;2022-10-16T01:43:44;5.18;;;2.70;;
58581;SDS011;44361;51.476;5.700;2022-10-16T01:46:14;3.22;;;2.58;;
58581;SDS011;44361;51.476;5.700;2022-10-16T01:48:43;3.42;;;2.58;;
58581;SDS011;44361;51.476;5.700;2022-10-16T01:51:09;5.30;;;2.58;;
58581;SDS011;44361;51.476;5.700;2022-10-16T01:53:38;5.13;;;3.00;;
58581;SDS011;44361;51.476;5.700;2022-10-16T01:56:08;3.97;;;2.50;;
58581;SDS011;44361;51.476;5.700;2022-10-16T01:58:37;3.20;;;2.33;;
58581;SDS011;44361;51.476;5.700;2022-10-16T02:01:07;5.13;;;2.63;;
58581;SDS011;44361;51.476;5.700;2022-10-16T02:03:35;5.93;;;2.63;;
58581;SDS011;44361;51.476;5.700;2022-10-16T02:06:04;6.22;;;2.50;;
58581;SDS011;44361;51.476;5.700;2022-10-16T02:08:32;3.70;;;2.20;;
58581;SDS011;44361;51.476;5.700;2022-10-16T02:10:59;5.03;;;2.30;;
58581;SDS011;44361;51.476;5.700;2022-10-16T02:13:26;7.07;;;2.50;;
58581;SDS011;44361;51.476;5.700;2022-10-16T02:15:59;3.47;;;1.92;;
58581;SDS011;44361;51.476;5.700;2022-10-16T02:18:25;3.95;;;2.03;;
58581;SDS011;44361;51.476;5.700;2022-10-16T02:20:58;4.20;;;2.35;;
58581;SDS011;44361;51.476;5.700;2022-10-16T02:26:12;4.57;;;2.13;;
58581;SDS011;44361;51.476;5.700;2022-10-16T02:28:45;3.45;;;1.80;;
58581;SDS011;44361;51.476;5.700;2022-10-16T02:31:14;2.63;;;1.85;;
58581;SDS011;44361;51.476;5.700;2022-10-16T02:33:43;4.82;;;1.92;;
58581;SDS011;44361;51.476;5.700;2022-10-16T02:36:10;2.97;;;2.08;;
58581;SDS011;44361;51.476;5.700;2022-10-16T02:38:37;3.45;;;1.88;;
58581;SDS011;44361;51.476;5.700;2022-10-16T02:41:04;3.22;;;1.80;;
58581;SDS011;44361;51.476;5.700;2022-10-16T02:43:30;3.15;;;1.77;;
58581;SDS011;44361;51.476;5.700;2022-10-16T02:45:56;4.85;;;2.00;;
58581;SDS011;44361;51.476;5.700;2022-10-16T02:48:22;5.43;;;1.70;;
58581;SDS011;44361;51.476;5.700;2022-10-16T02:50:47;3.63;;;1.80;;
58581;SDS011;44361;51.476;5.700;2022-10-16T02:53:13;4.05;;;1.80;;
58581;SDS011;44361;51.476;5.700;2022-10-16T02:55:38;5.65;;;1.73;;
58581;SDS011;44361;51.476;5.700;2022-10-16T02:58:04;3.58;;;1.90;;
58581;SDS011;44361;51.476;5.700;2022-10-16T03:00:29;5.63;;;2.08;;
58581;SDS011;44361;51.476;5.700;2022-10-16T03:02:55;5.20;;;1.95;;
58581;SDS011;44361;51.476;5.700;2022-10-16T03:05:21;3.53;;;2.10;;
58581;SDS011;44361;51.476;5.700;2022-10-16T03:07:46;3.85;;;2.15;;
58581;SDS011;44361;51.476;5.700;2022-10-16T03:10:12;5.75;;;2.20;;
58581;SDS011;44361;51.476;5.700;2022-10-16T03:12:37;4.15;;;2.17;;
58581;SDS011;44361;51.476;5.700;2022-10-16T03:15:03;6.65;;;2.55;;
58581;SDS011;44361;51.476;5.700;2022-10-16T03:17:29;2.78;;;2.05;;
58581;SDS011;44361;51.476;5.700;2022-10-16T03:19:56;4.15;;;2.17;;
58581;SDS011;44361;51.476;5.700;2022-10-16T03:22:21;4.05;;;2.03;;
58581;SDS011;44361;51.476;5.700;2022-10-16T03:24:47;4.30;;;2.10;;
58581;SDS011;44361;51.476;5.700;2022-10-16T03:27:12;4.82;;;2.20;;
58581;SDS011;44361;51.476;5.700;2022-10-16T03:29:38;4.13;;;2.05;;
58581;SDS011;44361;51.476;5.700;2022-10-16T03:32:03;6.68;;;2.30;;
58581;SDS011;44361;51.476;5.700;2022-10-16T03:34:29;4.78;;;2.03;;
58581;SDS011;44361;51.476;5.700;2022-10-16T03:36:55;3.28;;;1.92;;
58581;SDS011;44361;51.476;5.700;2022-10-16T03:39:20;3.53;;;1.90;;
58581;SDS011;44361;51.476;5.700;2022-10-16T03:41:46;6.10;;;2.05;;
58581;SDS011;44361;51.476;5.700;2022-10-16T03:44:12;4.38;;;2.20;;
58581;SDS011;44361;51.476;5.700;2022-10-16T03:46:38;4.07;;;2.13;;
58581;SDS011;44361;51.476;5.700;2022-10-16T03:49:04;3.03;;;1.98;;
58581;SDS011;44361;51.476;5.700;2022-10-16T03:51:30;4.32;;;2.13;;
58581;SDS011;44361;51.476;5.700;2022-10-16T03:53:56;3.92;;;1.95;;
58581;SDS011;44361;51.476;5.700;2022-10-16T03:56:21;4.13;;;1.95;;
58581;SDS011;44361;51.476;5.700;2022-10-16T03:58:47;2.97;;;2.03;;
58581;SDS011;44361;51.476;5.700;2022-10-16T04:01:12;2.97;;;1.85;;
58581;SDS011;44361;51.476;5.700;2022-10-16T04:03:38;5.35;;;2.20;;
58581;SDS011;44361;51.476;5.700;2022-10-16T04:06:04;3.05;;;1.85;;
58581;SDS011;44361;51.476;5.700;2022-10-16T04:08:30;7.97;;;2.05;;
58581;SDS011;44361;51.476;5.700;2022-10-16T04:10:55;3.35;;;2.03;;
58581;SDS011;44361;51.476;5.700;2022-10-16T04:13:21;7.32;;;1.92;;
58581;SDS011;44361;51.476;5.700;2022-10-16T04:15:46;3.92;;;2.85;;
58581;SDS011;44361;51.476;5.700;2022-10-16T04:18:12;8.52;;;2.92;;
58581;SDS011;44361;51.476;5.700;2022-10-16T04:20:37;2.75;;;1.95;;
58581;SDS011;44361;51.476;5.700;2022-10-16T04:23:03;3.70;;;2.03;;
58581;SDS011;44361;51.476;5.700;2022-10-16T04:25:29;3.45;;;1.77;;
58581;SDS011;44361;51.476;5.700;2022-10-16T04:27:55;4.93;;;2.08;;
58581;SDS011;44361;51.476;5.700;2022-10-16T04:30:21;3.47;;;2.00;;
58581;SDS011;44361;51.476;5.700;2022-10-16T04:32:48;6.18;;;2.30;;
58581;SDS011;44361;51.476;5.700;2022-10-16T04:35:14;2.58;;;1.80;;
58581;SDS011;44361;51.476;5.700;2022-10-16T04:37:40;7.97;;;2.00;;
58581;SDS011;44361;51.476;5.700;2022-10-16T04:40:06;3.90;;;1.73;;
58581;SDS011;44361;51.476;5.700;2022-10-16T04:42:32;4.82;;;2.05;;
58581;SDS011;44361;51.476;5.700;2022-10-16T04:44:57;5.03;;;2.08;;
58581;SDS011;44361;51.476;5.700;2022-10-16T04:47:23;4.80;;;2.03;;
58581;SDS011;44361;51.476;5.700;2022-10-16T04:49:48;4.63;;;1.90;;
58581;SDS011;44361;51.476;5.700;2022-10-16T04:52:14;5.28;;;1.65;;
58581;SDS011;44361;51.476;5.700;2022-10-16T04:54:40;4.50;;;1.80;;
58581;SDS011;44361;51.476;5.700;2022-10-16T04:57:05;5.22;;;2.10;;
58581;SDS011;44361;51.476;5.700;2022-10-16T04:59:31;4.57;;;1.88;;
58581;SDS011;44361;51.476;5.700;2022-10-16T05:01:56;3.88;;;2.00;;
58581;SDS011;44361;51.476;5.700;2022-10-16T05:04:22;2.40;;;1.75;;
58581;SDS011;44361;51.476;5.700;2022-10-16T05:06:48;4.60;;;1.80;;
58581;SDS011;44361;51.476;5.700;2022-10-16T05:09:14;4.57;;;1.90;;
58581;SDS011;44361;51.476;5.700;2022-10-16T05:11:39;2.63;;;1.95;;
58581;SDS011;44361;51.476;5.700;2022-10-16T05:14:05;4.85;;;2.00;;
58581;SDS011;44361;51.476;5.700;2022-10-16T05:16:30;3.90;;;2.08;;
58581;SDS011;44361;51.476;5.700;2022-10-16T05:18:56;3.03;;;2.00;;
58581;SDS011;44361;51.476;5.700;2022-10-16T05:21:22;3.22;;;1.80;;
58581;SDS011;44361;51.476;5.700;2022-10-16T05:23:48;5.78;;;2.28;;
58581;SDS011;44361;51.476;5.700;2022-10-16T05:26:13;4.43;;;2.33;;
58581;SDS011;44361;51.476;5.700;2022-10-16T05:28:39;3.30;;;2.20;;
58581;SDS011;44361;51.476;5.700;2022-10-16T05:31:05;5.35;;;2.10;;
58581;SDS011;44361;51.476;5.700;2022-10-16T05:33:31;3.83;;;2.15;;
58581;SDS011;44361;51.476;5.700;2022-10-16T05:36:00;5.85;;;1.88;;
58581;SDS011;44361;51.476;5.700;2022-10-16T05:38:30;5.10;;;2.05;;
58581;SDS011;44361;51.476;5.700;2022-10-16T05:40:55;5.20;;;2.15;;
58581;SDS011;44361;51.476;5.700;2022-10-16T05:43:21;4.75;;;2.30;;
58581;SDS011;44361;51.476;5.700;2022-10-16T05:46:08;3.55;;;2.30;;
58581;SDS011;44361;51.476;5.700;2022-10-16T05:48:33;8.13;;;2.38;;
58581;SDS011;44361;51.476;5.700;2022-10-16T05:51:05;4.03;;;2.28;;
58581;SDS011;44361;51.476;5.700;2022-10-16T05:53:33;3.95;;;2.10;;
58581;SDS011;44361;51.476;5.700;2022-10-16T05:56:00;4.93;;;2.25;;
58581;SDS011;44361;51.476;5.700;2022-10-16T05:58:32;8.00;;;2.42;;
58581;SDS011;44361;51.476;5.700;2022-10-16T06:01:18;4.53;;;2.42;;
58581;SDS011;44361;51.476;5.700;2022-10-16T06:03:45;5.20;;;2.53;;
58581;SDS011;44361;51.476;5.700;2022-10-16T06:06:12;4.13;;;2.38;;
58581;SDS011;44361;51.476;5.700;2022-10-16T06:08:39;6.45;;;2.90;;
58581;SDS011;44361;51.476;5.700;2022-10-16T06:11:07;5.75;;;2.50;;
58581;SDS011;44361;51.476;5.700;2022-10-16T06:13:34;4.65;;;2.55;;
58581;SDS011;44361;51.476;5.700;2022-10-16T06:16:00;5.40;;;2.70;;
58581;SDS011;44361;51.476;5.700;2022-10-16T06:18:28;6.55;;;2.75;;
58581;SDS011;44361;51.476;5.700;2022-10-16T06:20:54;6.55;;;2.75;;
58581;SDS011;44361;51.476;5.700;2022-10-16T06:23:21;4.60;;;2.58;;
58581;SDS011;44361;51.476;5.700;2022-10-16T06:25:47;4.22;;;2.70;;
58581;SDS011;44361;51.476;5.700;2022-10-16T06:28:13;3.53;;;2.28;;
58581;SDS011;44361;51.476;5.700;2022-10-16T06:30:39;6.70;;;2.60;;
58581;SDS011;44361;51.476;5.700;2022-10-16T06:33:05;5.05;;;3.00;;
58581;SDS011;44361;51.476;5.700;2022-10-16T06:35:31;6.63;;;2.70;;
58581;SDS011;44361;51.476;5.700;2022-10-16T06:37:57;4.93;;;2.58;;
58581;SDS011;44361;51.476;5.700;2022-10-16T06:40:23;7.50;;;3.03;;
58581;SDS011;44361;51.476;5.700;2022-10-16T06:42:49;6.90;;;2.63;;
58581;SDS011;44361;51.476;5.700;2022-10-16T06:45:15;6.03;;;3.25;;
58581;SDS011;44361;51.476;5.700;2022-10-16T06:47:40;8.38;;;3.58;;
58581;SDS011;44361;51.476;5.700;2022-10-16T06:50:06;7.20;;;2.75;;
58581;SDS011;44361;51.476;5.700;2022-10-16T06:52:32;6.97;;;2.65;;
58581;SDS011;44361;51.476;5.700;2022-10-16T06:54:59;6.65;;;2.70;;
58581;SDS011;44361;51.476;5.700;2022-10-16T06:57:24;7.57;;;2.88;;
58581;SDS011;44361;51.476;5.700;2022-10-16T06:59:50;8.02;;;3.60;;
58581;SDS011;44361;51.476;5.700;2022-10-16T07:02:16;6.15;;;2.85;;
58581;SDS011;44361;51.476;5.700;2022-10-16T07:04:41;4.07;;;2.60;;
58581;SDS011;44361;51.476;5.700;2022-10-16T07:07:07;5.05;;;2.53;;
58581;SDS011;44361;51.476;5.700;2022-10-16T07:09:32;6.38;;;2.88;;
58581;SDS011;44361;51.476;5.700;2022-10-16T07:11:58;6.03;;;3.40;;
58581;SDS011;44361;51.476;5.700;2022-10-16T07:14:23;9.25;;;3.30;;
58581;SDS011;44361;51.476;5.700;2022-10-16T07:16:49;5.25;;;2.83;;
58581;SDS011;44361;51.476;5.700;2022-10-16T07:19:15;8.60;;;3.45;;
58581;SDS011;44361;51.476;5.700;2022-10-16T07:21:42;8.23;;;3.30;;
58581;SDS011;44361;51.476;5.700;2022-10-16T07:24:13;7.63;;;3.67;;
58581;SDS011;44361;51.476;5.700;2022-10-16T07:26:40;9.15;;;3.10;;
58581;SDS011;44361;51.476;5.700;2022-10-16T07:29:07;8.93;;;2.83;;
58581;SDS011;44361;51.476;5.700;2022-10-16T07:31:38;5.72;;;3.05;;
58581;SDS011;44361;51.476;5.700;2022-10-16T07:34:04;7.40;;;3.40;;
58581;SDS011;44361;51.476;5.700;2022-10-16T07:36:30;5.63;;;3.03;;
58581;SDS011;44361;51.476;5.700;2022-10-16T07:38:55;6.35;;;2.80;;
58581;SDS011;44361;51.476;5.700;2022-10-16T07:41:21;5.55;;;2.65;;
58581;SDS011;44361;51.476;5.700;2022-10-16T07:43:53;7.00;;;2.88;;
58581;SDS011;44361;51.476;5.700;2022-10-16T07:46:20;4.50;;;2.13;;
58581;SDS011;44361;51.476;5.700;2022-10-16T07:48:46;4.80;;;2.50;;
58581;SDS011;44361;51.476;5.700;2022-10-16T07:51:17;6.68;;;2.67;;
58581;SDS011;44361;51.476;5.700;2022-10-16T07:53:44;7.00;;;2.50;;
58581;SDS011;44361;51.476;5.700;2022-10-16T07:56:09;6.13;;;3.08;;
58581;SDS011;44361;51.476;5.700;2022-10-16T07:58:36;4.53;;;1.95;;
58581;SDS011;44361;51.476;5.700;2022-10-16T08:01:03;5.97;;;2.25;;
58581;SDS011;44361;51.476;5.700;2022-10-16T08:03:30;5.28;;;2.28;;
58581;SDS011;44361;51.476;5.700;2022-10-16T08:05:56;3.75;;;2.35;;
58581;SDS011;44361;51.476;5.700;2022-10-16T08:08:22;5.63;;;2.30;;
58581;SDS011;44361;51.476;5.700;2022-10-16T08:10:47;4.63;;;1.90;;
58581;SDS011;44361;51.476;5.700;2022-10-16T08:13:13;7.38;;;2.20;;
58581;SDS011;44361;51.476;5.700;2022-10-16T08:15:40;9.23;;;2.20;;
58581;SDS011;44361;51.476;5.700;2022-10-16T08:18:06;4.20;;;1.70;;
58581;SDS011;44361;51.476;5.700;2022-10-16T08:20:32;5.10;;;2.10;;
58581;SDS011;44361;51.476;5.700;2022-10-16T08:22:58;4.90;;;2.00;;
58581;SDS011;44361;51.476;5.700;2022-10-16T08:25:25;5.97;;;1.98;;
58581;SDS011;44361;51.476;5.700;2022-10-16T08:27:51;4.57;;;1.48;;
58581;SDS011;44361;51.476;5.700;2022-10-16T08:30:17;3.05;;;1.30;;
58581;SDS011;44361;51.476;5.700;2022-10-16T08:32:44;5.28;;;1.92;;
58581;SDS011;44361;51.476;5.700;2022-10-16T08:35:10;3.38;;;1.58;;
58581;SDS011;44361;51.476;5.700;2022-10-16T08:37:36;4.07;;;1.65;;
58581;SDS011;44361;51.476;5.700;2022-10-16T08:40:03;8.82;;;1.70;;
58581;SDS011;44361;51.476;5.700;2022-10-16T08:45:02;3.10;;;1.40;;
58581;SDS011;44361;51.476;5.700;2022-10-16T08:50:31;7.32;;;1.67;;
58581;SDS011;44361;51.476;5.700;2022-10-16T08:53:01;5.43;;;1.40;;
58581;SDS011;44361;51.476;5.700;2022-10-16T08:55:31;4.68;;;1.10;;
58581;SDS011;44361;51.476;5.700;2022-10-16T08:58:00;2.60;;;1.20;;
58581;SDS011;44361;51.476;5.700;2022-10-16T09:00:26;8.23;;;1.67;;
58581;SDS011;44361;51.476;5.700;2022-10-16T09:02:57;5.28;;;1.30;;
58581;SDS011;44361;51.476;5.700;2022-10-16T09:10:57;4.68;;;1.35;;
58581;SDS011;44361;51.476;5.700;2022-10-16T09:13:34;3.67;;;1.15;;
58581;SDS011;44361;51.476;5.700;2022-10-16T09:16:23;3.60;;;1.08;;
58581;SDS011;44361;51.476;5.700;2022-10-16T09:19:00;2.08;;;0.95;;
58581;SDS011;44361;51.476;5.700;2022-10-16T09:21:46;4.55;;;1.13;;
58581;SDS011;44361;51.476;5.700;2022-10-16T09:24:16;7.25;;;1.55;;
58581;SDS011;44361;51.476;5.700;2022-10-16T09:26:44;5.75;;;1.30;;
58581;SDS011;44361;51.476;5.700;2022-10-16T09:29:14;2.50;;;0.93;;
58581;SDS011;44361;51.476;5.700;2022-10-16T09:31:41;5.53;;;1.33;;
58581;SDS011;44361;51.476;5.700;2022-10-16T09:34:29;5.72;;;1.05;;
58581;SDS011;44361;51.476;5.700;2022-10-16T09:36:59;4.68;;;1.02;;
58581;SDS011;44361;51.476;5.700;2022-10-16T09:39:26;5.82;;;1.13;;
58581;SDS011;44361;51.476;5.700;2022-10-16T09:41:52;5.47;;;1.55;;
58581;SDS011;44361;51.476;5.700;2022-10-16T09:44:19;6.65;;;1.65;;
58581;SDS011;44361;51.476;5.700;2022-10-16T09:47:05;3.92;;;0.98;;
58581;SDS011;44361;51.476;5.700;2022-10-16T09:49:37;6.90;;;1.30;;
58581;SDS011;44361;51.476;5.700;2022-10-16T09:52:03;3.30;;;1.08;;
58581;SDS011;44361;51.476;5.700;2022-10-16T09:54:48;5.70;;;0.98;;
58581;SDS011;44361;51.476;5.700;2022-10-16T09:57:15;2.92;;;0.98;;
58581;SDS011;44361;51.476;5.700;2022-10-16T09:59:54;3.20;;;0.95;;
58581;SDS011;44361;51.476;5.700;2022-10-16T10:02:36;7.78;;;1.40;;
58581;SDS011;44361;51.476;5.700;2022-10-16T10:05:04;7.50;;;1.33;;
58581;SDS011;44361;51.476;5.700;2022-10-16T10:07:31;3.60;;;1.45;;
58581;SDS011;44361;51.476;5.700;2022-10-16T10:10:04;8.52;;;1.58;;
58581;SDS011;44361;51.476;5.700;2022-10-16T10:12:32;4.40;;;1.38;;
58581;SDS011;44361;51.476;5.700;2022-10-16T10:15:18;7.75;;;1.00;;
58581;SDS011;44361;51.476;5.700;2022-10-16T10:17:47;6.00;;;1.40;;
58581;SDS011;44361;51.476;5.700;2022-10-16T10:20:27;6.57;;;1.02;;
58581;SDS011;44361;51.476;5.700;2022-10-16T10:23:22;7.53;;;1.00;;
58581;SDS011;44361;51.476;5.700;2022-10-16T10:25:49;6.50;;;1.10;;
58581;SDS011;44361;51.476;5.700;2022-10-16T10:31:13;4.65;;;1.08;;
58581;SDS011;44361;51.476;5.700;2022-10-16T10:33:52;2.42;;;0.70;;
58581;SDS011;44361;51.476;5.700;2022-10-16T10:36:48;7.03;;;1.05;;
58581;SDS011;44361;51.476;5.700;2022-10-16T10:50:05;6.78;;;1.60;;
58581;SDS011;44361;51.476;5.700;2022-10-16T11:06:40;8.02;;;1.23;;
58581;SDS011;44361;51.476;5.700;2022-10-16T11:11:45;4.13;;;0.95;;
58581;SDS011;44361;51.476;5.700;2022-10-16T11:14:19;4.85;;;0.95;;
58581;SDS011;44361;51.476;5.700;2022-10-16T11:16:53;5.35;;;0.80;;
58581;SDS011;44361;51.476;5.700;2022-10-16T11:19:37;5.78;;;1.35;;
58581;SDS011;44361;51.476;5.700;2022-10-16T11:27:15;10.30;;;1.60;;
58581;SDS011;44361;51.476;5.700;2022-10-16T11:29:47;6.15;;;1.15;;
58581;SDS011;44361;51.476;5.700;2022-10-16T11:32:20;4.43;;;1.07;;
58581;SDS011;44361;51.476;5.700;2022-10-16T11:34:52;8.93;;;0.93;;
58581;SDS011;44361;51.476;5.700;2022-10-16T11:37:32;6.53;;;1.25;;
58581;SDS011;44361;51.476;5.700;2022-10-16T11:40:09;5.10;;;0.95;;
58581;SDS011;44361;51.476;5.700;2022-10-16T11:43:24;5.88;;;1.08;;
58581;SDS011;44361;51.476;5.700;2022-10-16T11:46:02;5.30;;;1.10;;
58581;SDS011;44361;51.476;5.700;2022-10-16T11:48:36;5.57;;;1.02;;
58581;SDS011;44361;51.476;5.700;2022-10-16T11:51:38;3.65;;;0.73;;
58581;SDS011;44361;51.476;5.700;2022-10-16T11:54:14;4.85;;;1.00;;
58581;SDS011;44361;51.476;5.700;2022-10-16T11:56:47;8.98;;;1.33;;
58581;SDS011;44361;51.476;5.700;2022-10-16T11:59:41;8.82;;;1.10;;
58581;SDS011;44361;51.476;5.700;2022-10-16T12:07:53;2.80;;;0.88;;
58581;SDS011;44361;51.476;5.700;2022-10-16T12:10:28;5.40;;;0.90;;
58581;SDS011;44361;51.476;5.700;2022-10-16T12:12:57;4.60;;;0.90;;
58581;SDS011;44361;51.476;5.700;2022-10-16T12:15:30;5.80;;;2.15;;
58581;SDS011;44361;51.476;5.700;2022-10-16T12:17:58;3.90;;;0.90;;
58581;SDS011;44361;51.476;5.700;2022-10-16T12:22:56;4.15;;;0.98;;
58581;SDS011;44361;51.476;5.700;2022-10-16T12:25:37;4.72;;;0.68;;
58581;SDS011;44361;51.476;5.700;2022-10-16T12:30:39;5.63;;;0.80;;
58581;SDS011;44361;51.476;5.700;2022-10-16T12:33:15;5.90;;;0.85;;
58581;SDS011;44361;51.476;5.700;2022-10-16T12:35:48;3.55;;;0.70;;
58581;SDS011;44361;51.476;5.700;2022-10-16T12:40:46;5.90;;;1.05;;
58581;SDS011;44361;51.476;5.700;2022-10-16T12:48:35;7.72;;;1.05;;
58581;SDS011;44361;51.476;5.700;2022-10-16T12:51:11;5.30;;;0.82;;
58581;SDS011;44361;51.476;5.700;2022-10-16T12:53:46;5.22;;;1.00;;
58581;SDS011;44361;51.476;5.700;2022-10-16T12:57:08;3.17;;;1.02;;
58581;SDS011;44361;51.476;5.700;2022-10-16T13:10:41;4.97;;;1.00;;
58581;SDS011;44361;51.476;5.700;2022-10-16T13:24:12;2.80;;;0.55;;
58581;SDS011;44361;51.476;5.700;2022-10-16T13:26:56;4.13;;;1.15;;
58581;SDS011;44361;51.476;5.700;2022-10-16T13:29:45;3.33;;;0.77;;
58581;SDS011;44361;51.476;5.700;2022-10-16T13:32:16;5.78;;;0.73;;
58581;SDS011;44361;51.476;5.700;2022-10-16T13:34:45;4.10;;;1.02;;
58581;SDS011;44361;51.476;5.700;2022-10-16T13:37:16;2.70;;;0.80;;
58581;SDS011;44361;51.476;5.700;2022-10-16T13:39:44;6.80;;;1.60;;
58581;SDS011;44361;51.476;5.700;2022-10-16T13:42:12;3.97;;;0.80;;
58581;SDS011;44361;51.476;5.700;2022-10-16T13:44:49;3.38;;;0.50;;
58581;SDS011;44361;51.476;5.700;2022-10-16T13:49:58;6.18;;;1.10;;
58581;SDS011;44361;51.476;5.700;2022-10-16T13:52:34;3.95;;;0.70;;
58581;SDS011;44361;51.476;5.700;2022-10-16T13:55:00;6.78;;;0.88;;
58581;SDS011;44361;51.476;5.700;2022-10-16T13:57:25;2.45;;;0.50;;
58581;SDS011;44361;51.476;5.700;2022-10-16T13:59:52;2.42;;;0.70;;
58581;SDS011;44361;51.476;5.700;2022-10-16T14:02:20;7.10;;;1.20;;
58581;SDS011;44361;51.476;5.700;2022-10-16T14:04:46;5.25;;;1.00;;
58581;SDS011;44361;51.476;5.700;2022-10-16T14:10:22;8.25;;;0.90;;
58581;SDS011;44361;51.476;5.700;2022-10-16T14:12:54;1.42;;;0.50;;
58581;SDS011;44361;51.476;5.700;2022-10-16T14:15:31;4.93;;;1.05;;
58581;SDS011;44361;51.476;5.700;2022-10-16T14:17:59;4.50;;;1.23;;
58581;SDS011;44361;51.476;5.700;2022-10-16T14:20:26;7.78;;;1.35;;
58581;SDS011;44361;51.476;5.700;2022-10-16T14:23:00;5.70;;;1.20;;
58581;SDS011;44361;51.476;5.700;2022-10-16T14:25:28;5.95;;;1.17;;
58581;SDS011;44361;51.476;5.700;2022-10-16T14:27:56;3.45;;;1.00;;
58581;SDS011;44361;51.476;5.700;2022-10-16T14:30:24;5.22;;;0.93;;
58581;SDS011;44361;51.476;5.700;2022-10-16T14:33:50;2.97;;;1.02;;
58581;SDS011;44361;51.476;5.700;2022-10-16T14:36:01;3.10;;;1.00;;
58581;SDS011;44361;51.476;5.700;2022-10-16T14:38:33;4.78;;;1.00;;
58581;SDS011;44361;51.476;5.700;2022-10-16T14:40:59;3.90;;;0.98;;
58581;SDS011;44361;51.476;5.700;2022-10-16T14:43:39;8.88;;;1.00;;
58581;SDS011;44361;51.476;5.700;2022-10-16T14:46:08;5.50;;;1.33;;
58581;SDS011;44361;51.476;5.700;2022-10-16T14:48:46;7.03;;;0.98;;
58581;SDS011;44361;51.476;5.700;2022-10-16T14:51:15;3.88;;;0.80;;
58581;SDS011;44361;51.476;5.700;2022-10-16T14:53:42;5.60;;;1.20;;
58581;SDS011;44361;51.476;5.700;2022-10-16T14:56:08;6.65;;;1.20;;
58581;SDS011;44361;51.476;5.700;2022-10-16T14:58:40;5.82;;;1.20;;
58581;SDS011;44361;51.476;5.700;2022-10-16T15:01:07;4.93;;;1.00;;
58581;SDS011;44361;51.476;5.700;2022-10-16T15:03:35;4.57;;;1.15;;
58581;SDS011;44361;51.476;5.700;2022-10-16T15:06:01;3.97;;;0.88;;
58581;SDS011;44361;51.476;5.700;2022-10-16T15:08:26;2.88;;;0.80;;
58581;SDS011;44361;51.476;5.700;2022-10-16T15:10:52;7.70;;;1.30;;
58581;SDS011;44361;51.476;5.700;2022-10-16T15:13:17;3.30;;;0.85;;
58581;SDS011;44361;51.476;5.700;2022-10-16T15:15:43;1.58;;;0.68;;
58581;SDS011;44361;51.476;5.700;2022-10-16T15:18:11;7.68;;;1.13;;
58581;SDS011;44361;51.476;5.700;2022-10-16T15:20:39;7.80;;;1.13;;
58581;SDS011;44361;51.476;5.700;2022-10-16T15:23:06;2.85;;;0.80;;
58581;SDS011;44361;51.476;5.700;2022-10-16T15:25:50;6.45;;;2.38;;
58581;SDS011;44361;51.476;5.700;2022-10-16T15:28:17;5.78;;;1.30;;
58581;SDS011;44361;51.476;5.700;2022-10-16T15:30:44;1.38;;;0.90;;
58581;SDS011;44361;51.476;5.700;2022-10-16T15:33:11;4.82;;;1.05;;
58581;SDS011;44361;51.476;5.700;2022-10-16T15:35:39;5.30;;;1.20;;
58581;SDS011;44361;51.476;5.700;2022-10-16T15:38:04;1.85;;;1.00;;
58581;SDS011;44361;51.476;5.700;2022-10-16T15:40:30;2.17;;;0.80;;
58581;SDS011;44361;51.476;5.700;2022-10-16T15:42:55;5.10;;;1.05;;
58581;SDS011;44361;51.476;5.700;2022-10-16T15:45:21;3.80;;;0.85;;
58581;SDS011;44361;51.476;5.700;2022-10-16T15:47:46;5.82;;;0.93;;
58581;SDS011;44361;51.476;5.700;2022-10-16T15:50:13;6.28;;;1.80;;
58581;SDS011;44361;51.476;5.700;2022-10-16T15:52:40;6.18;;;1.63;;
58581;SDS011;44361;51.476;5.700;2022-10-16T15:55:07;3.92;;;1.50;;
58581;SDS011;44361;51.476;5.700;2022-10-16T15:57:36;4.38;;;0.90;;
58581;SDS011;44361;51.476;5.700;2022-10-16T16:00:05;2.10;;;0.90;;
58581;SDS011;44361;51.476;5.700;2022-10-16T16:02:34;4.20;;;1.15;;
58581;SDS011;44361;51.476;5.700;2022-10-16T16:05:00;3.63;;;0.98;;
58581;SDS011;44361;51.476;5.700;2022-10-16T16:07:26;5.10;;;0.90;;
58581;SDS011;44361;51.476;5.700;2022-10-16T16:09:52;9.65;;;1.35;;
58581;SDS011;44361;51.476;5.700;2022-10-16T16:12:18;9.95;;;1.40;;
58581;SDS011;44361;51.476;5.700;2022-10-16T16:14:44;2.95;;;1.08;;
58581;SDS011;44361;51.476;5.700;2022-10-16T16:17:11;10.07;;;1.10;;
58581;SDS011;44361;51.476;5.700;2022-10-16T16:19:36;2.78;;;1.00;;
58581;SDS011;44361;51.476;5.700;2022-10-16T16:22:02;3.63;;;1.45;;
58581;SDS011;44361;51.476;5.700;2022-10-16T16:24:28;4.85;;;1.88;;
58581;SDS011;44361;51.476;5.700;2022-10-16T16:26:53;8.90;;;1.50;;
58581;SDS011;44361;51.476;5.700;2022-10-16T16:29:19;8.70;;;2.40;;
58581;SDS011;44361;51.476;5.700;2022-10-16T16:31:44;7.00;;;1.75;;
58581;SDS011;44361;51.476;5.700;2022-10-16T16:34:12;5.15;;;1.92;;
58581;SDS011;44361;51.476;5.700;2022-10-16T16:36:37;8.48;;;2.40;;
58581;SDS011;44361;51.476;5.700;2022-10-16T16:39:05;7.95;;;2.50;;
58581;SDS011;44361;51.476;5.700;2022-10-16T16:41:31;4.57;;;1.90;;
58581;SDS011;44361;51.476;5.700;2022-10-16T16:44:01;6.35;;;2.50;;
58581;SDS011;44361;51.476;5.700;2022-10-16T16:48:58;26.50;;;11.30;;